sensor_id;sensor_type;location;lat;lon;timestamp;temperature;humidity
4964;DHT22;2497;47.410;9.740;2023-01-24T00:01:12;-3.20;99.90
4964;DHT22;2497;47.410;9.740;2023-01-24T00:03:41;-3.30;99.90
4964;DHT22;2497;47.410;9.740;2023-01-24T00:06:08;-3.30;99.90
4964;DHT22;2497;47.410;9.740;2023-01-24T00:08:38;-3.40;99.90
4964;DHT22;2497;47.410;9.740;2023-01-24T00:11:07;-3.40;99.90
4964;DHT22;2497;47.410;9.740;2023-01-24T00:13:35;-3.40;99.90
4964;DHT22;2497;47.410;9.740;2023-01-24T00:16:05;-3.50;99.90
4964;DHT22;2497;47.410;9.740;2023-01-24T00:18:33;-3.50;99.90
4964;DHT22;2497;47.410;9.740;2023-01-24T00:21:03;-3.50;99.90
4964;DHT22;2497;47.410;9.740;2023-01-24T00:23:31;-3.50;99.90
4964;DHT22;2497;47.410;9.740;2023-01-24T00:25:58;-3.40;99.90
4964;DHT22;2497;47.410;9.740;2023-01-24T00:28:25;-3.40;99.90
4964;DHT22;2497;47.410;9.740;2023-01-24T00:30:53;-3.30;99.90
4964;DHT22;2497;47.410;9.740;2023-01-24T00:33:20;-3.20;99.90
4964;DHT22;2497;47.410;9.740;2023-01-24T00:35:49;-3.20;99.90
4964;DHT22;2497;47.410;9.740;2023-01-24T00:38:19;-3.20;99.90
4964;DHT22;2497;47.410;9.740;2023-01-24T00:40:47;-3.20;99.90
4964;DHT22;2497;47.410;9.740;2023-01-24T00:43:14;-3.40;99.90
4964;DHT22;2497;47.410;9.740;2023-01-24T00:45:43;-3.50;99.90
4964;DHT22;2497;47.410;9.740;2023-01-24T00:48:13;-3.50;99.90
4964;DHT22;2497;47.410;9.740;2023-01-24T00:50:42;-3.50;99.90
4964;DHT22;2497;47.410;9.740;2023-01-24T00:53:09;-3.70;99.90
4964;DHT22;2497;47.410;9.740;2023-01-24T00:55:42;-3.70;99.90
4964;DHT22;2497;47.410;9.740;2023-01-24T00:58:12;-3.70;99.90
4964;DHT22;2497;47.410;9.740;2023-01-24T01:00:40;-3.70;99.90
4964;DHT22;2497;47.410;9.740;2023-01-24T01:03:11;-3.50;99.90
4964;DHT22;2497;47.410;9.740;2023-01-24T01:05:38;-3.40;99.90
4964;DHT22;2497;47.410;9.740;2023-01-24T01:08:05;-3.50;99.90
4964;DHT22;2497;47.410;9.740;2023-01-24T01:10:33;-3.50;99.90
4964;DHT22;2497;47.410;9.740;2023-01-24T01:13:02;-3.60;99.90
4964;DHT22;2497;47.410;9.740;2023-01-24T01:15:30;-3.50;99.90
4964;DHT22;2497;47.410;9.740;2023-01-24T01:17:58;-3.60;99.90
4964;DHT22;2497;47.410;9.740;2023-01-24T01:20:26;-3.60;99.90
4964;DHT22;2497;47.410;9.740;2023-01-24T01:22:54;-3.60;99.90
4964;DHT22;2497;47.410;9.740;2023-01-24T01:25:22;-3.70;99.90
4964;DHT22;2497;47.410;9.740;2023-01-24T01:27:50;-3.70;99.90
4964;DHT22;2497;47.410;9.740;2023-01-24T01:30:19;-3.60;99.90
4964;DHT22;2497;47.410;9.740;2023-01-24T01:32:51;-3.40;99.90
4964;DHT22;2497;47.410;9.740;2023-01-24T01:35:30;-3.30;99.90
4964;DHT22;2497;47.410;9.740;2023-01-24T01:37:57;-3.30;99.90
4964;DHT22;2497;47.410;9.740;2023-01-24T01:40:25;-3.20;99.90
4964;DHT22;2497;47.410;9.740;2023-01-24T01:42:54;-3.30;99.90
4964;DHT22;2497;47.410;9.740;2023-01-24T01:45:39;-3.40;99.90
4964;DHT22;2497;47.410;9.740;2023-01-24T01:48:24;-3.40;99.90
4964;DHT22;2497;47.410;9.740;2023-01-24T01:50:59;-3.40;99.90
4964;DHT22;2497;47.410;9.740;2023-01-24T01:53:31;-3.40;99.90
4964;DHT22;2497;47.410;9.740;2023-01-24T01:56:04;-3.40;99.90
4964;DHT22;2497;47.410;9.740;2023-01-24T01:58:33;-3.40;99.90
4964;DHT22;2497;47.410;9.740;2023-01-24T02:01:04;-3.40;99.90
4964;DHT22;2497;47.410;9.740;2023-01-24T02:03:36;-3.40;99.90
4964;DHT22;2497;47.410;9.740;2023-01-24T02:06:12;-3.50;99.90
4964;DHT22;2497;47.410;9.740;2023-01-24T02:08:42;-3.50;99.90
4964;DHT22;2497;47.410;9.740;2023-01-24T02:11:11;-3.60;99.90
4964;DHT22;2497;47.410;9.740;2023-01-24T02:13:59;-3.50;99.90
4964;DHT22;2497;47.410;9.740;2023-01-24T02:16:41;-3.40;99.90
4964;DHT22;2497;47.410;9.740;2023-01-24T02:19:14;-3.60;99.90
4964;DHT22;2497;47.410;9.740;2023-01-24T02:21:44;-3.70;99.90
4964;DHT22;2497;47.410;9.740;2023-01-24T02:24:17;-3.80;99.90
4964;DHT22;2497;47.410;9.740;2023-01-24T02:26:49;-3.80;99.90
4964;DHT22;2497;47.410;9.740;2023-01-24T02:29:17;-3.80;99.90
4964;DHT22;2497;47.410;9.740;2023-01-24T02:31:56;-3.90;99.90
4964;DHT22;2497;47.410;9.740;2023-01-24T02:34:28;-3.70;99.90
4964;DHT22;2497;47.410;9.740;2023-01-24T02:36:59;-3.70;99.90
4964;DHT22;2497;47.410;9.740;2023-01-24T02:39:32;-3.70;99.90
4964;DHT22;2497;47.410;9.740;2023-01-24T02:42:07;-3.60;99.90
4964;DHT22;2497;47.410;9.740;2023-01-24T02:44:42;-3.60;99.90
4964;DHT22;2497;47.410;9.740;2023-01-24T02:47:10;-3.60;99.90
4964;DHT22;2497;47.410;9.740;2023-01-24T02:49:44;-3.60;99.90
4964;DHT22;2497;47.410;9.740;2023-01-24T02:52:14;-3.70;99.90
4964;DHT22;2497;47.410;9.740;2023-01-24T02:55:00;-3.80;99.90
4964;DHT22;2497;47.410;9.740;2023-01-24T02:57:35;-3.80;99.90
4964;DHT22;2497;47.410;9.740;2023-01-24T03:00:20;-3.90;99.90
4964;DHT22;2497;47.410;9.740;2023-01-24T03:02:53;-3.90;99.90
4964;DHT22;2497;47.410;9.740;2023-01-24T03:05:21;-3.90;99.90
4964;DHT22;2497;47.410;9.740;2023-01-24T03:08:06;-3.90;99.90
4964;DHT22;2497;47.410;9.740;2023-01-24T03:10:36;-4.00;99.90
4964;DHT22;2497;47.410;9.740;2023-01-24T03:13:05;-3.90;99.90
4964;DHT22;2497;47.410;9.740;2023-01-24T03:15:49;-3.90;99.90
4964;DHT22;2497;47.410;9.740;2023-01-24T03:18:36;-3.70;99.90
4964;DHT22;2497;47.410;9.740;2023-01-24T03:21:21;-3.60;99.90
4964;DHT22;2497;47.410;9.740;2023-01-24T03:24:07;-3.60;99.90
4964;DHT22;2497;47.410;9.740;2023-01-24T03:26:52;-3.50;99.90
4964;DHT22;2497;47.410;9.740;2023-01-24T03:29:40;-3.50;99.90
4964;DHT22;2497;47.410;9.740;2023-01-24T03:32:25;-3.40;99.90
4964;DHT22;2497;47.410;9.740;2023-01-24T03:35:12;-3.20;99.90
4964;DHT22;2497;47.410;9.740;2023-01-24T03:37:42;-3.20;99.90
4964;DHT22;2497;47.410;9.740;2023-01-24T03:40:27;-3.20;99.90
4964;DHT22;2497;47.410;9.740;2023-01-24T03:42:56;-3.20;99.90
4964;DHT22;2497;47.410;9.740;2023-01-24T03:45:26;-3.20;99.90
4964;DHT22;2497;47.410;9.740;2023-01-24T03:47:55;-3.40;99.90
4964;DHT22;2497;47.410;9.740;2023-01-24T03:50:26;-3.40;99.90
4964;DHT22;2497;47.410;9.740;2023-01-24T03:53:11;-3.50;99.90
4964;DHT22;2497;47.410;9.740;2023-01-24T03:55:39;-3.60;99.90
4964;DHT22;2497;47.410;9.740;2023-01-24T03:58:07;-3.60;99.90
4964;DHT22;2497;47.410;9.740;2023-01-24T04:00:42;-3.70;99.90
4964;DHT22;2497;47.410;9.740;2023-01-24T04:03:09;-3.70;99.90
4964;DHT22;2497;47.410;9.740;2023-01-24T04:05:39;-3.70;99.90
4964;DHT22;2497;47.410;9.740;2023-01-24T04:08:18;-3.80;99.90
4964;DHT22;2497;47.410;9.740;2023-01-24T04:10:45;-3.80;99.90
4964;DHT22;2497;47.410;9.740;2023-01-24T04:13:17;-3.80;99.90
4964;DHT22;2497;47.410;9.740;2023-01-24T05:05:29;-4.00;99.90
4964;DHT22;2497;47.410;9.740;2023-01-24T05:22:14;-4.20;99.90
4964;DHT22;2497;47.410;9.740;2023-01-24T05:27:23;-4.20;99.90
4964;DHT22;2497;47.410;9.740;2023-01-24T05:29:51;-4.20;99.90
4964;DHT22;2497;47.410;9.740;2023-01-24T05:32:18;-4.20;99.90
4964;DHT22;2497;47.410;9.740;2023-01-24T05:34:46;-4.00;99.90
4964;DHT22;2497;47.410;9.740;2023-01-24T05:37:15;-3.80;99.90
4964;DHT22;2497;47.410;9.740;2023-01-24T05:39:48;-3.80;99.90
4964;DHT22;2497;47.410;9.740;2023-01-24T05:42:21;-3.90;99.90
4964;DHT22;2497;47.410;9.740;2023-01-24T05:44:49;-4.00;99.90
4964;DHT22;2497;47.410;9.740;2023-01-24T05:47:19;-4.00;99.90
4964;DHT22;2497;47.410;9.740;2023-01-24T05:49:50;-4.10;99.90
4964;DHT22;2497;47.410;9.740;2023-01-24T05:52:25;-4.20;99.90
4964;DHT22;2497;47.410;9.740;2023-01-24T05:55:03;-4.20;99.90
4964;DHT22;2497;47.410;9.740;2023-01-24T05:57:40;-4.20;99.90
4964;DHT22;2497;47.410;9.740;2023-01-24T06:00:09;-4.20;99.90
4964;DHT22;2497;47.410;9.740;2023-01-24T06:02:38;-4.30;99.90
4964;DHT22;2497;47.410;9.740;2023-01-24T06:05:07;-4.30;99.90
4964;DHT22;2497;47.410;9.740;2023-01-24T06:07:37;-4.30;99.90
4964;DHT22;2497;47.410;9.740;2023-01-24T06:10:05;-4.40;99.90
4964;DHT22;2497;47.410;9.740;2023-01-24T06:12:36;-4.30;99.90
4964;DHT22;2497;47.410;9.740;2023-01-24T06:15:10;-4.30;99.90
4964;DHT22;2497;47.410;9.740;2023-01-24T06:17:38;-4.40;99.90
4964;DHT22;2497;47.410;9.740;2023-01-24T06:20:10;-4.30;99.90
4964;DHT22;2497;47.410;9.740;2023-01-24T06:22:45;-4.10;99.90
4964;DHT22;2497;47.410;9.740;2023-01-24T06:25:19;-4.00;99.90
4964;DHT22;2497;47.410;9.740;2023-01-24T06:27:51;-4.00;99.90
4964;DHT22;2497;47.410;9.740;2023-01-24T06:30:33;-4.00;99.90
4964;DHT22;2497;47.410;9.740;2023-01-24T06:33:23;-4.10;99.90
4964;DHT22;2497;47.410;9.740;2023-01-24T06:36:14;-4.10;99.90
4964;DHT22;2497;47.410;9.740;2023-01-24T06:38:50;-4.20;99.90
4964;DHT22;2497;47.410;9.740;2023-01-24T06:41:18;-4.20;99.90
4964;DHT22;2497;47.410;9.740;2023-01-24T06:43:47;-4.20;99.90
4964;DHT22;2497;47.410;9.740;2023-01-24T06:46:14;-4.20;99.90
4964;DHT22;2497;47.410;9.740;2023-01-24T06:48:45;-4.20;99.90
4964;DHT22;2497;47.410;9.740;2023-01-24T06:51:13;-4.10;99.90
4964;DHT22;2497;47.410;9.740;2023-01-24T06:53:44;-3.90;99.90
4964;DHT22;2497;47.410;9.740;2023-01-24T06:56:18;-3.70;99.90
4964;DHT22;2497;47.410;9.740;2023-01-24T06:58:46;-3.60;99.90
4964;DHT22;2497;47.410;9.740;2023-01-24T07:01:14;-3.70;99.90
4964;DHT22;2497;47.410;9.740;2023-01-24T07:03:42;-3.70;99.90
4964;DHT22;2497;47.410;9.740;2023-01-24T07:06:13;-3.70;99.90
4964;DHT22;2497;47.410;9.740;2023-01-24T07:08:41;-3.60;99.90
4964;DHT22;2497;47.410;9.740;2023-01-24T07:11:11;-3.60;99.90
4964;DHT22;2497;47.410;9.740;2023-01-24T07:13:43;-3.60;99.90
4964;DHT22;2497;47.410;9.740;2023-01-24T07:16:10;-3.70;99.90
4964;DHT22;2497;47.410;9.740;2023-01-24T07:18:38;-3.80;99.90
4964;DHT22;2497;47.410;9.740;2023-01-24T07:21:07;-3.90;99.90
4964;DHT22;2497;47.410;9.740;2023-01-24T07:23:43;-3.90;99.90
4964;DHT22;2497;47.410;9.740;2023-01-24T07:26:12;-3.90;99.90
4964;DHT22;2497;47.410;9.740;2023-01-24T07:28:43;-3.80;99.90
4964;DHT22;2497;47.410;9.740;2023-01-24T07:31:15;-3.80;99.90
4964;DHT22;2497;47.410;9.740;2023-01-24T07:33:42;-3.90;99.90
4964;DHT22;2497;47.410;9.740;2023-01-24T07:36:14;-3.90;99.90
4964;DHT22;2497;47.410;9.740;2023-01-24T07:38:45;-4.00;99.90
4964;DHT22;2497;47.410;9.740;2023-01-24T07:41:20;-4.00;99.90
4964;DHT22;2497;47.410;9.740;2023-01-24T07:43:57;-3.90;99.90
4964;DHT22;2497;47.410;9.740;2023-01-24T07:46:39;-3.80;99.90
4964;DHT22;2497;47.410;9.740;2023-01-24T07:49:06;-3.70;99.90
4964;DHT22;2497;47.410;9.740;2023-01-24T07:51:41;-3.70;99.90
4964;DHT22;2497;47.410;9.740;2023-01-24T07:54:11;-3.70;99.90
4964;DHT22;2497;47.410;9.740;2023-01-24T07:56:40;-3.60;99.90
4964;DHT22;2497;47.410;9.740;2023-01-24T07:59:12;-3.70;99.90
4964;DHT22;2497;47.410;9.740;2023-01-24T08:01:40;-3.70;99.90
4964;DHT22;2497;47.410;9.740;2023-01-24T08:04:09;-3.60;99.90
4964;DHT22;2497;47.410;9.740;2023-01-24T08:06:44;-3.60;99.90
4964;DHT22;2497;47.410;9.740;2023-01-24T08:09:26;-3.60;99.90
4964;DHT22;2497;47.410;9.740;2023-01-24T08:11:59;-3.60;99.90
4964;DHT22;2497;47.410;9.740;2023-01-24T08:14:44;-3.50;99.90
4964;DHT22;2497;47.410;9.740;2023-01-24T08:17:28;-3.50;99.90
4964;DHT22;2497;47.410;9.740;2023-01-24T08:20:08;-3.40;99.90
4964;DHT22;2497;47.410;9.740;2023-01-24T08:22:57;-3.20;99.90
4964;DHT22;2497;47.410;9.740;2023-01-24T08:25:28;-3.20;99.90
4964;DHT22;2497;47.410;9.740;2023-01-24T08:28:00;-3.20;99.90
4964;DHT22;2497;47.410;9.740;2023-01-24T08:30:55;-3.30;99.90
4964;DHT22;2497;47.410;9.740;2023-01-24T08:33:26;-3.30;99.90
4964;DHT22;2497;47.410;9.740;2023-01-24T08:36:31;-3.30;99.90
4964;DHT22;2497;47.410;9.740;2023-01-24T08:39:16;-3.20;99.90
4964;DHT22;2497;47.410;9.740;2023-01-24T08:41:43;-2.90;99.90
4964;DHT22;2497;47.410;9.740;2023-01-24T08:44:12;-2.80;99.90
4964;DHT22;2497;47.410;9.740;2023-01-24T08:46:41;-2.70;99.90
4964;DHT22;2497;47.410;9.740;2023-01-24T08:49:10;-2.60;99.90
4964;DHT22;2497;47.410;9.740;2023-01-24T08:51:38;-2.50;99.90
4964;DHT22;2497;47.410;9.740;2023-01-24T08:54:05;-2.50;99.90
4964;DHT22;2497;47.410;9.740;2023-01-24T08:56:33;-2.40;99.90
4964;DHT22;2497;47.410;9.740;2023-01-24T08:59:01;-2.40;99.90
4964;DHT22;2497;47.410;9.740;2023-01-24T09:01:28;-2.40;99.90
4964;DHT22;2497;47.410;9.740;2023-01-24T09:03:59;-2.40;99.90
4964;DHT22;2497;47.410;9.740;2023-01-24T09:06:28;-2.40;99.90
4964;DHT22;2497;47.410;9.740;2023-01-24T09:08:58;-2.40;99.90
4964;DHT22;2497;47.410;9.740;2023-01-24T09:11:28;-2.50;99.90
4964;DHT22;2497;47.410;9.740;2023-01-24T09:13:55;-2.50;99.90
4964;DHT22;2497;47.410;9.740;2023-01-24T09:16:23;-2.50;99.90
4964;DHT22;2497;47.410;9.740;2023-01-24T09:19:04;-2.50;99.90
4964;DHT22;2497;47.410;9.740;2023-01-24T09:21:31;-2.50;99.90
4964;DHT22;2497;47.410;9.740;2023-01-24T09:23:59;-2.40;99.90
4964;DHT22;2497;47.410;9.740;2023-01-24T09:26:27;-2.40;99.90
4964;DHT22;2497;47.410;9.740;2023-01-24T09:28:54;-2.30;99.90
4964;DHT22;2497;47.410;9.740;2023-01-24T09:31:22;-2.30;99.90
4964;DHT22;2497;47.410;9.740;2023-01-24T09:33:52;-2.30;99.90
4964;DHT22;2497;47.410;9.740;2023-01-24T09:36:28;-2.20;99.90
4964;DHT22;2497;47.410;9.740;2023-01-24T09:38:58;-2.20;99.90
4964;DHT22;2497;47.410;9.740;2023-01-24T09:41:35;-2.10;99.90
4964;DHT22;2497;47.410;9.740;2023-01-24T09:44:13;-2.10;99.90
4964;DHT22;2497;47.410;9.740;2023-01-24T09:49:22;-2.00;99.90
4964;DHT22;2497;47.410;9.740;2023-01-24T09:51:58;-1.90;99.90
4964;DHT22;2497;47.410;9.740;2023-01-24T09:54:34;-1.80;99.90
4964;DHT22;2497;47.410;9.740;2023-01-24T09:57:11;-1.90;99.90
4964;DHT22;2497;47.410;9.740;2023-01-24T10:38:26;-0.90;99.90
4964;DHT22;2497;47.410;9.740;2023-01-24T10:41:15;-0.80;99.90
4964;DHT22;2497;47.410;9.740;2023-01-24T10:43:44;-0.80;99.90
4964;DHT22;2497;47.410;9.740;2023-01-24T10:49:20;-1.00;99.90
4964;DHT22;2497;47.410;9.740;2023-01-24T10:52:10;-0.90;99.90
4964;DHT22;2497;47.410;9.740;2023-01-24T10:54:48;-0.90;99.90
4964;DHT22;2497;47.410;9.740;2023-01-24T10:57:38;-0.80;99.90
4964;DHT22;2497;47.410;9.740;2023-01-24T11:00:24;-0.60;99.90
4964;DHT22;2497;47.410;9.740;2023-01-24T11:02:54;-0.60;99.90
4964;DHT22;2497;47.410;9.740;2023-01-24T11:05:23;-0.70;99.90
4964;DHT22;2497;47.410;9.740;2023-01-24T11:07:52;-0.80;99.90
4964;DHT22;2497;47.410;9.740;2023-01-24T11:10:23;-0.60;99.90
4964;DHT22;2497;47.410;9.740;2023-01-24T11:12:53;-0.50;99.90
4964;DHT22;2497;47.410;9.740;2023-01-24T11:15:26;-0.40;99.90
4964;DHT22;2497;47.410;9.740;2023-01-24T11:17:56;-0.40;99.90
4964;DHT22;2497;47.410;9.740;2023-01-24T11:20:29;-0.30;99.90
4964;DHT22;2497;47.410;9.740;2023-01-24T11:23:10;-0.10;99.90
4964;DHT22;2497;47.410;9.740;2023-01-24T11:25:53;0.10;99.90
4964;DHT22;2497;47.410;9.740;2023-01-24T11:28:25;0.20;99.90
4964;DHT22;2497;47.410;9.740;2023-01-24T11:30:53;0.30;99.90
4964;DHT22;2497;47.410;9.740;2023-01-24T11:33:46;0.50;99.90
4964;DHT22;2497;47.410;9.740;2023-01-24T11:36:29;0.80;99.90
4964;DHT22;2497;47.410;9.740;2023-01-24T11:39:02;0.80;99.90
4964;DHT22;2497;47.410;9.740;2023-01-24T11:41:48;0.70;99.90
4964;DHT22;2497;47.410;9.740;2023-01-24T11:44:46;0.60;99.90
4964;DHT22;2497;47.410;9.740;2023-01-24T11:47:21;0.50;99.90
4964;DHT22;2497;47.410;9.740;2023-01-24T11:50:15;0.80;99.90
4964;DHT22;2497;47.410;9.740;2023-01-24T11:52:53;1.00;99.90
4964;DHT22;2497;47.410;9.740;2023-01-24T11:55:33;1.20;99.90
4964;DHT22;2497;47.410;9.740;2023-01-24T11:58:36;1.30;99.90
4964;DHT22;2497;47.410;9.740;2023-01-24T12:01:10;1.70;99.90
4964;DHT22;2497;47.410;9.740;2023-01-24T12:03:59;2.10;99.90
4964;DHT22;2497;47.410;9.740;2023-01-24T12:06:37;2.10;99.90
4964;DHT22;2497;47.410;9.740;2023-01-24T12:09:16;2.90;99.90
4964;DHT22;2497;47.410;9.740;2023-01-24T12:11:49;3.20;99.90
4964;DHT22;2497;47.410;9.740;2023-01-24T12:17:27;4.50;99.90
4964;DHT22;2497;47.410;9.740;2023-01-24T12:20:12;5.00;99.90
4964;DHT22;2497;47.410;9.740;2023-01-24T12:22:47;5.70;99.90
4964;DHT22;2497;47.410;9.740;2023-01-24T12:25:22;6.60;99.90
4964;DHT22;2497;47.410;9.740;2023-01-24T12:27:53;6.70;99.90
4964;DHT22;2497;47.410;9.740;2023-01-24T12:30:28;7.70;99.90
4964;DHT22;2497;47.410;9.740;2023-01-24T12:33:01;7.30;99.90
4964;DHT22;2497;47.410;9.740;2023-01-24T12:35:32;7.00;99.90
4964;DHT22;2497;47.410;9.740;2023-01-24T12:38:16;6.80;99.90
4964;DHT22;2497;47.410;9.740;2023-01-24T12:40:52;6.90;99.90
4964;DHT22;2497;47.410;9.740;2023-01-24T12:43:29;6.90;99.90
4964;DHT22;2497;47.410;9.740;2023-01-24T12:46:10;6.80;99.90
4964;DHT22;2497;47.410;9.740;2023-01-24T12:48:47;6.40;99.90
4964;DHT22;2497;47.410;9.740;2023-01-24T12:51:20;6.60;99.90
4964;DHT22;2497;47.410;9.740;2023-01-24T12:54:02;6.40;99.90
4964;DHT22;2497;47.410;9.740;2023-01-24T12:56:40;6.10;99.90
4964;DHT22;2497;47.410;9.740;2023-01-24T12:59:10;6.00;99.90
4964;DHT22;2497;47.410;9.740;2023-01-24T13:02:03;4.60;99.90
4964;DHT22;2497;47.410;9.740;2023-01-24T13:04:43;3.50;99.90
4964;DHT22;2497;47.410;9.740;2023-01-24T13:07:20;3.60;99.90
4964;DHT22;2497;47.410;9.740;2023-01-24T13:09:52;3.60;99.90
4964;DHT22;2497;47.410;9.740;2023-01-24T13:12:24;4.20;99.90
4964;DHT22;2497;47.410;9.740;2023-01-24T13:14:53;4.40;99.90
4964;DHT22;2497;47.410;9.740;2023-01-24T13:17:38;3.90;99.90
4964;DHT22;2497;47.410;9.740;2023-01-24T13:20:28;4.20;99.90
4964;DHT22;2497;47.410;9.740;2023-01-24T13:23:12;4.70;99.90
4964;DHT22;2497;47.410;9.740;2023-01-24T13:25:53;4.40;99.90
4964;DHT22;2497;47.410;9.740;2023-01-24T13:28:32;4.40;99.90
4964;DHT22;2497;47.410;9.740;2023-01-24T13:31:11;4.40;99.90
4964;DHT22;2497;47.410;9.740;2023-01-24T13:33:42;4.30;99.90
4964;DHT22;2497;47.410;9.740;2023-01-24T13:36:18;4.20;99.90
4964;DHT22;2497;47.410;9.740;2023-01-24T13:38:46;4.70;99.90
4964;DHT22;2497;47.410;9.740;2023-01-24T13:41:16;5.10;99.90
4964;DHT22;2497;47.410;9.740;2023-01-24T13:43:55;5.40;99.90
4964;DHT22;2497;47.410;9.740;2023-01-24T13:49:33;5.70;99.90
4964;DHT22;2497;47.410;9.740;2023-01-24T13:52:03;5.10;99.90
4964;DHT22;2497;47.410;9.740;2023-01-24T13:54:35;4.90;99.90
4964;DHT22;2497;47.410;9.740;2023-01-24T13:57:25;4.60;99.90
4964;DHT22;2497;47.410;9.740;2023-01-24T14:00:14;5.00;99.90
4964;DHT22;2497;47.410;9.740;2023-01-24T14:02:55;5.40;99.90
4964;DHT22;2497;47.410;9.740;2023-01-24T14:05:46;5.70;99.90
4964;DHT22;2497;47.410;9.740;2023-01-24T14:08:32;6.30;99.90
4964;DHT22;2497;47.410;9.740;2023-01-24T14:11:28;7.20;99.90
4964;DHT22;2497;47.410;9.740;2023-01-24T14:14:02;7.30;99.90
4964;DHT22;2497;47.410;9.740;2023-01-24T14:19:51;6.80;99.90
4964;DHT22;2497;47.410;9.740;2023-01-24T14:22:21;6.70;99.90
4964;DHT22;2497;47.410;9.740;2023-01-24T14:24:56;6.70;99.90
4964;DHT22;2497;47.410;9.740;2023-01-24T14:27:34;6.60;99.90
4964;DHT22;2497;47.410;9.740;2023-01-24T14:30:31;6.30;99.90
4964;DHT22;2497;47.410;9.740;2023-01-24T14:33:04;6.30;99.90
4964;DHT22;2497;47.410;9.740;2023-01-24T14:35:33;5.60;99.90
4964;DHT22;2497;47.410;9.740;2023-01-24T14:38:14;5.30;99.90
4964;DHT22;2497;47.410;9.740;2023-01-24T14:40:50;5.00;99.90
4964;DHT22;2497;47.410;9.740;2023-01-24T14:43:18;4.80;99.90
4964;DHT22;2497;47.410;9.740;2023-01-24T14:45:46;4.50;99.90
4964;DHT22;2497;47.410;9.740;2023-01-24T14:48:20;4.20;99.90
4964;DHT22;2497;47.410;9.740;2023-01-24T14:50:56;3.80;99.90
4964;DHT22;2497;47.410;9.740;2023-01-24T14:53:26;3.50;99.90
4964;DHT22;2497;47.410;9.740;2023-01-24T14:55:56;3.30;99.90
4964;DHT22;2497;47.410;9.740;2023-01-24T14:58:28;3.10;99.90
4964;DHT22;2497;47.410;9.740;2023-01-24T15:00:57;2.90;99.90
4964;DHT22;2497;47.410;9.740;2023-01-24T15:03:25;2.70;99.90
4964;DHT22;2497;47.410;9.740;2023-01-24T15:05:56;2.50;99.90
4964;DHT22;2497;47.410;9.740;2023-01-24T15:08:23;2.30;99.90
4964;DHT22;2497;47.410;9.740;2023-01-24T15:11:02;2.10;99.90
4964;DHT22;2497;47.410;9.740;2023-01-24T15:13:33;2.00;99.90
4964;DHT22;2497;47.410;9.740;2023-01-24T15:16:07;1.80;99.90
4964;DHT22;2497;47.410;9.740;2023-01-24T15:18:44;1.80;99.90
4964;DHT22;2497;47.410;9.740;2023-01-24T15:21:23;1.70;99.90
4964;DHT22;2497;47.410;9.740;2023-01-24T15:23:53;1.60;99.90
4964;DHT22;2497;47.410;9.740;2023-01-24T15:26:43;1.60;99.90
4964;DHT22;2497;47.410;9.740;2023-01-24T15:29:41;1.50;99.90
4964;DHT22;2497;47.410;9.740;2023-01-24T15:32:29;1.40;99.90
4964;DHT22;2497;47.410;9.740;2023-01-24T15:40:47;1.10;99.90
4964;DHT22;2497;47.410;9.740;2023-01-24T15:43:20;1.00;99.90
4964;DHT22;2497;47.410;9.740;2023-01-24T15:46:05;0.90;99.90
4964;DHT22;2497;47.410;9.740;2023-01-24T15:48:57;0.80;99.90
4964;DHT22;2497;47.410;9.740;2023-01-24T15:51:32;0.70;99.90
4964;DHT22;2497;47.410;9.740;2023-01-24T15:53:59;0.70;99.90
4964;DHT22;2497;47.410;9.740;2023-01-24T15:56:28;0.60;99.90
4964;DHT22;2497;47.410;9.740;2023-01-24T15:58:57;0.50;99.90
4964;DHT22;2497;47.410;9.740;2023-01-24T16:01:30;0.40;99.90
4964;DHT22;2497;47.410;9.740;2023-01-24T16:04:09;0.40;99.90
4964;DHT22;2497;47.410;9.740;2023-01-24T16:06:38;0.40;99.90
4964;DHT22;2497;47.410;9.740;2023-01-24T16:09:05;0.40;99.90
4964;DHT22;2497;47.410;9.740;2023-01-24T16:11:34;0.30;99.90
4964;DHT22;2497;47.410;9.740;2023-01-24T16:14:04;0.30;99.90
4964;DHT22;2497;47.410;9.740;2023-01-24T16:16:33;0.30;99.90
4964;DHT22;2497;47.410;9.740;2023-01-24T16:19:01;0.20;99.90
4964;DHT22;2497;47.410;9.740;2023-01-24T16:21:28;0.10;99.90
4964;DHT22;2497;47.410;9.740;2023-01-24T16:23:55;0.10;99.90
4964;DHT22;2497;47.410;9.740;2023-01-24T16:26:24;0.10;99.90
4964;DHT22;2497;47.410;9.740;2023-01-24T16:28:52;0.20;99.90
4964;DHT22;2497;47.410;9.740;2023-01-24T16:31:20;0.10;99.90
4964;DHT22;2497;47.410;9.740;2023-01-24T16:33:47;0.10;99.90
4964;DHT22;2497;47.410;9.740;2023-01-24T16:36:15;0.00;99.90
4964;DHT22;2497;47.410;9.740;2023-01-24T16:38:43;-0.10;99.90
4964;DHT22;2497;47.410;9.740;2023-01-24T16:41:10;-0.10;99.90
4964;DHT22;2497;47.410;9.740;2023-01-24T16:43:42;-0.20;99.90
4964;DHT22;2497;47.410;9.740;2023-01-24T16:46:17;-0.30;99.90
4964;DHT22;2497;47.410;9.740;2023-01-24T16:48:47;-0.20;99.90
4964;DHT22;2497;47.410;9.740;2023-01-24T16:51:15;-0.20;99.90
4964;DHT22;2497;47.410;9.740;2023-01-24T16:53:43;-0.10;99.90
4964;DHT22;2497;47.410;9.740;2023-01-24T16:56:11;-0.10;99.90
4964;DHT22;2497;47.410;9.740;2023-01-24T16:58:38;0.00;99.90
4964;DHT22;2497;47.410;9.740;2023-01-24T17:01:09;0.00;99.90
4964;DHT22;2497;47.410;9.740;2023-01-24T17:03:40;0.00;99.90
4964;DHT22;2497;47.410;9.740;2023-01-24T17:06:11;0.10;99.90
4964;DHT22;2497;47.410;9.740;2023-01-24T17:08:40;0.00;99.90
4964;DHT22;2497;47.410;9.740;2023-01-24T17:11:09;0.00;99.90
4964;DHT22;2497;47.410;9.740;2023-01-24T17:13:38;-0.10;99.90
4964;DHT22;2497;47.410;9.740;2023-01-24T17:16:06;-0.10;99.90
4964;DHT22;2497;47.410;9.740;2023-01-24T17:18:35;-0.20;99.90
4964;DHT22;2497;47.410;9.740;2023-01-24T17:21:04;-0.20;99.90
4964;DHT22;2497;47.410;9.740;2023-01-24T17:23:35;-0.30;99.90
4964;DHT22;2497;47.410;9.740;2023-01-24T17:26:05;-0.30;99.90
4964;DHT22;2497;47.410;9.740;2023-01-24T17:28:35;-0.30;99.90
4964;DHT22;2497;47.410;9.740;2023-01-24T17:31:08;-0.30;99.90
4964;DHT22;2497;47.410;9.740;2023-01-24T17:33:35;-0.20;99.90
4964;DHT22;2497;47.410;9.740;2023-01-24T17:36:03;-0.20;99.90
4964;DHT22;2497;47.410;9.740;2023-01-24T17:38:30;-0.20;99.90
4964;DHT22;2497;47.410;9.740;2023-01-24T17:41:01;-0.20;99.90
4964;DHT22;2497;47.410;9.740;2023-01-24T17:43:29;-0.20;99.90
4964;DHT22;2497;47.410;9.740;2023-01-24T17:45:59;-0.20;99.90
4964;DHT22;2497;47.410;9.740;2023-01-24T17:48:27;-0.20;99.90
4964;DHT22;2497;47.410;9.740;2023-01-24T17:50:56;-0.30;99.90
4964;DHT22;2497;47.410;9.740;2023-01-24T17:53:23;-0.40;99.90
4964;DHT22;2497;47.410;9.740;2023-01-24T17:55:54;-0.30;99.90
4964;DHT22;2497;47.410;9.740;2023-01-24T17:58:24;-0.40;99.90
4964;DHT22;2497;47.410;9.740;2023-01-24T18:00:52;-0.30;99.90
4964;DHT22;2497;47.410;9.740;2023-01-24T18:03:20;-0.40;99.90
4964;DHT22;2497;47.410;9.740;2023-01-24T18:05:49;-0.40;99.90
4964;DHT22;2497;47.410;9.740;2023-01-24T18:08:17;-0.50;99.90
4964;DHT22;2497;47.410;9.740;2023-01-24T18:10:47;-0.50;99.90
4964;DHT22;2497;47.410;9.740;2023-01-24T18:13:20;-0.40;99.90
4964;DHT22;2497;47.410;9.740;2023-01-24T18:15:59;-0.40;99.90
4964;DHT22;2497;47.410;9.740;2023-01-24T18:18:27;-0.40;99.90
4964;DHT22;2497;47.410;9.740;2023-01-24T18:20:55;-0.40;99.90
4964;DHT22;2497;47.410;9.740;2023-01-24T18:23:25;-0.50;99.90
4964;DHT22;2497;47.410;9.740;2023-01-24T18:25:52;-0.60;99.90
4964;DHT22;2497;47.410;9.740;2023-01-24T18:28:20;-0.60;99.90
4964;DHT22;2497;47.410;9.740;2023-01-24T18:30:49;-0.60;99.90
4964;DHT22;2497;47.410;9.740;2023-01-24T18:33:17;-0.60;99.90
4964;DHT22;2497;47.410;9.740;2023-01-24T18:35:46;-0.60;99.90
4964;DHT22;2497;47.410;9.740;2023-01-24T18:38:14;-0.70;99.90
4964;DHT22;2497;47.410;9.740;2023-01-24T18:40:42;-0.80;99.90
4964;DHT22;2497;47.410;9.740;2023-01-24T18:43:10;-0.80;99.90
4964;DHT22;2497;47.410;9.740;2023-01-24T18:45:38;-0.80;99.90
4964;DHT22;2497;47.410;9.740;2023-01-24T18:48:08;-0.70;99.90
4964;DHT22;2497;47.410;9.740;2023-01-24T18:50:35;-0.70;99.90
4964;DHT22;2497;47.410;9.740;2023-01-24T18:53:04;-0.60;99.90